Time;durP1;ratioP1;P1;durP2;ratioP2;P2;SDS_P1;SDS_P2;PMS_P1;PMS_P2;Temp;Humidity;BMP_temperature;BMP_pressure;BME280_temperature;BME280_humidity;BME280_pressure;Samples;Min_cycle;Max_cycle;Signal;HPM_P1;HPM_P2
2021/08/16 00:00:57;;;;;;;7.15;2.75;;;25.40;97.00;;;;;;5084864;28;20102;-55
2021/08/16 00:03:23;;;;;;;4.18;2.83;;;25.40;97.00;;;;;;5083406;28;20346;-58
2021/08/16 00:05:50;;;;;;;5.85;2.90;;;25.40;97.00;;;;;;5084596;28;20181;-53
2021/08/16 00:08:17;;;;;;;3.80;2.53;;;25.50;96.80;;;;;;5084626;28;20276;-55
2021/08/16 00:10:43;;;;;;;5.22;2.28;;;25.40;96.60;;;;;;5084827;28;20036;-54
2021/08/16 00:13:10;;;;;;;5.28;2.40;;;25.40;96.60;;;;;;5083997;28;20099;-50
2021/08/16 00:15:37;;;;;;;3.63;2.50;;;25.30;96.60;;;;;;5084298;28;20052;-49
2021/08/16 00:18:04;;;;;;;2.70;2.03;;;25.30;96.80;;;;;;5084385;28;20084;-50
2021/08/16 00:20:31;;;;;;;2.80;2.13;;;25.30;96.90;;;;;;5084561;28;20193;-52
2021/08/16 00:22:57;;;;;;;8.63;3.08;;;25.30;97.00;;;;;;5084461;28;20320;-51
2021/08/16 00:25:24;;;;;;;5.80;2.40;;;25.20;97.20;;;;;;5084551;28;20146;-50
2021/08/16 00:27:51;;;;;;;6.28;2.55;;;25.20;97.10;;;;;;5084206;28;20028;-57
2021/08/16 00:30:18;;;;;;;6.60;2.25;;;25.20;97.10;;;;;;5084300;28;20060;-50
2021/08/16 00:32:44;;;;;;;6.70;2.35;;;25.10;97.10;;;;;;5084221;28;20300;-57
2021/08/16 00:35:11;;;;;;;7.25;2.50;;;25.20;97.20;;;;;;5084369;28;20025;-51
2021/08/16 00:37:38;;;;;;;8.50;2.78;;;25.20;97.40;;;;;;5083792;28;20061;-47
2021/08/16 00:40:05;;;;;;;9.80;3.00;;;25.20;97.60;;;;;;5083668;28;20224;-48
2021/08/16 00:42:32;;;;;;;9.90;2.35;;;25.30;97.50;;;;;;5083844;28;20046;-50
2021/08/16 00:44:59;;;;;;;6.88;3.20;;;25.30;97.30;;;;;;5084006;28;20308;-49
2021/08/16 00:47:26;;;;;;;9.07;3.80;;;25.30;97.20;;;;;;5083880;28;20031;-52
2021/08/16 00:49:53;;;;;;;8.15;4.18;;;25.40;97.20;;;;;;5075088;28;20028;-50
2021/08/16 00:52:20;;;;;;;8.77;3.80;;;25.40;97.20;;;;;;5073665;28;20012;-54
2021/08/16 00:54:46;;;;;;;7.90;3.90;;;25.40;97.10;;;;;;5072969;28;20205;-48
2021/08/16 00:57:13;;;;;;;8.18;4.10;;;25.40;97.10;;;;;;5072479;28;20009;-52
2021/08/16 00:59:40;;;;;;;7.53;3.63;;;25.40;97.10;;;;;;5075108;28;20088;-49
2021/08/16 01:02:07;;;;;;;18.45;3.80;;;25.40;97.30;;;;;;5083950;28;20022;-49
2021/08/16 01:04:33;;;;;;;25.27;5.00;;;25.30;97.50;;;;;;5083806;28;20028;-50
2021/08/16 01:07:00;;;;;;;20.90;4.78;;;25.20;97.70;;;;;;5083601;28;20070;-51
2021/08/16 01:09:27;;;;;;;17.58;4.00;;;25.20;97.80;;;;;;5083837;28;20251;-49
2021/08/16 01:11:53;;;;;;;12.20;4.10;;;25.20;97.90;;;;;;5083639;28;20017;-60
2021/08/16 01:14:20;;;;;;;13.82;4.60;;;25.10;97.90;;;;;;5083405;28;20036;-54
2021/08/16 01:16:49;;;;;;;12.70;4.22;;;25.10;98.00;;;;;;5083628;28;20013;-61
2021/08/16 01:19:20;;;;;;;10.00;4.30;;;25.20;98.00;;;;;;5083773;28;20056;-56
2021/08/16 01:21:47;;;;;;;17.63;4.78;;;25.20;98.10;;;;;;5083510;28;20024;-56
2021/08/16 01:24:15;;;;;;;11.52;5.10;;;25.20;98.10;;;;;;5083721;28;20305;-56
2021/08/16 01:26:41;;;;;;;10.75;5.20;;;25.20;98.10;;;;;;5083532;28;20024;-49
2021/08/16 01:29:37;;;;;;;14.05;5.43;;;25.10;98.20;;;;;;5083519;28;20028;-54
2021/08/16 01:32:05;;;;;;;9.10;5.22;;;25.20;98.20;;;;;;5066826;28;20074;-54
2021/08/16 01:34:32;;;;;;;9.50;5.00;;;25.30;98.10;;;;;;5083468;28;20024;-53
2021/08/16 01:36:59;;;;;;;7.28;4.57;;;25.30;98.00;;;;;;5083369;28;20181;-56
2021/08/16 01:39:27;;;;;;;10.32;4.90;;;25.30;97.90;;;;;;5083591;28;20084;-59
2021/08/16 01:41:55;;;;;;;10.20;4.68;;;25.30;97.80;;;;;;5083379;28;20036;-56
2021/08/16 01:44:22;;;;;;;10.27;4.65;;;25.40;97.80;;;;;;5083436;28;20034;-53
2021/08/16 01:46:50;;;;;;;11.70;4.75;;;25.30;97.80;;;;;;5083337;28;20046;-52
2021/08/16 01:49:17;;;;;;;12.23;5.55;;;25.40;97.80;;;;;;5083372;28;20092;-52
2021/08/16 01:51:47;;;;;;;7.07;4.70;;;25.40;97.80;;;;;;5085099;28;20024;-55
2021/08/16 01:54:15;;;;;;;9.60;4.63;;;25.40;97.80;;;;;;5087010;28;20200;-53
2021/08/16 01:56:41;;;;;;;10.15;5.00;;;25.40;97.90;;;;;;5086880;28;20070;-53
2021/08/16 01:59:08;;;;;;;9.52;5.57;;;25.40;97.90;;;;;;5087008;28;20246;-57
2021/08/16 02:01:35;;;;;;;6.68;5.50;;;25.40;97.80;;;;;;5086877;28;20021;-53
2021/08/16 02:04:02;;;;;;;8.43;5.13;;;25.40;97.90;;;;;;5086843;28;20086;-51
2021/08/16 02:06:29;;;;;;;9.88;5.60;;;25.40;97.90;;;;;;5086782;28;20020;-51
2021/08/16 02:08:56;;;;;;;7.97;5.60;;;25.40;97.90;;;;;;5086875;28;20169;-52
2021/08/16 02:11:24;;;;;;;7.30;5.30;;;25.40;97.90;;;;;;5087146;28;20020;-55
2021/08/16 02:13:51;;;;;;;6.80;5.57;;;25.40;97.80;;;;;;5086483;28;20190;-54
2021/08/16 02:16:18;;;;;;;6.47;5.75;;;25.40;97.80;;;;;;5086481;28;20062;-63
2021/08/16 02:18:44;;;;;;;9.32;6.03;;;25.40;97.80;;;;;;5086452;28;20430;-51
2021/08/16 02:21:11;;;;;;;7.53;5.72;;;25.40;97.90;;;;;;5086604;28;20027;-53
2021/08/16 02:23:39;;;;;;;7.10;6.10;;;25.40;97.90;;;;;;5086494;28;20217;-53
2021/08/16 02:26:05;;;;;;;8.73;5.90;;;25.40;97.80;;;;;;5086441;28;20027;-57
2021/08/16 02:28:34;;;;;;;7.18;5.72;;;25.40;97.90;;;;;;5086459;28;20316;-51
2021/08/16 02:31:00;;;;;;;9.80;6.00;;;25.40;97.90;;;;;;5086383;28;20032;-53
2021/08/16 02:33:27;;;;;;;7.43;5.63;;;25.40;97.80;;;;;;5086180;28;20024;-53
2021/08/16 02:35:54;;;;;;;6.13;5.53;;;25.40;97.80;;;;;;5086657;28;20032;-59
2021/08/16 02:38:20;;;;;;;6.97;5.07;;;25.40;97.70;;;;;;5086215;28;20013;-51
2021/08/16 02:40:47;;;;;;;8.00;5.03;;;25.40;97.70;;;;;;5086432;28;20032;-49
2021/08/16 02:43:13;;;;;;;7.32;5.38;;;25.40;97.70;;;;;;5086432;28;20020;-56
2021/08/16 02:45:40;;;;;;;7.32;5.05;;;25.40;97.70;;;;;;5086518;28;20021;-56
2021/08/16 02:48:06;;;;;;;8.60;5.10;;;25.40;97.70;;;;;;5085886;28;20020;-58
2021/08/16 02:50:33;;;;;;;8.60;7.78;;;25.30;97.70;;;;;;5086413;28;20044;-53
2021/08/16 02:53:00;;;;;;;11.65;9.18;;;25.30;97.80;;;;;;5085880;28;20284;-57
2021/08/16 02:55:26;;;;;;;12.60;10.32;;;25.30;97.90;;;;;;5085969;28;20033;-49
2021/08/16 02:57:53;;;;;;;11.13;9.25;;;25.30;97.90;;;;;;5085839;28;20020;-54
2021/08/16 03:00:19;;;;;;;11.75;10.55;;;25.30;97.90;;;;;;5086073;28;20020;-52
2021/08/16 03:02:46;;;;;;;10.73;9.20;;;25.30;97.90;;;;;;5085472;28;20032;-50
2021/08/16 03:05:14;;;;;;;10.90;7.80;;;25.30;97.80;;;;;;5085851;28;20032;-54
2021/08/16 03:07:40;;;;;;;8.77;7.38;;;25.30;97.90;;;;;;5085105;28;20055;-50
2021/08/16 03:10:10;;;;;;;9.55;6.65;;;25.20;97.90;;;;;;5085304;28;20064;-52
2021/08/16 03:12:36;;;;;;;7.53;6.22;;;25.10;98.00;;;;;;5085264;28;20034;-51
2021/08/16 03:15:04;;;;;;;17.65;6.20;;;25.10;98.10;;;;;;5085340;28;20040;-54
2021/08/16 03:17:31;;;;;;;11.32;5.80;;;25.10;98.20;;;;;;5085042;28;20058;-51
2021/08/16 03:19:57;;;;;;;17.13;6.72;;;25.00;98.30;;;;;;5085659;28;20028;-55
2021/08/16 03:22:24;;;;;;;23.45;6.32;;;25.10;98.30;;;;;;5085401;28;20096;-58
2021/08/16 03:24:51;;;;;;;26.90;6.53;;;25.10;98.20;;;;;;5085381;28;20316;-57
2021/08/16 03:27:17;;;;;;;15.82;6.18;;;25.30;98.10;;;;;;5085104;28;20035;-58
2021/08/16 03:29:44;;;;;;;20.40;6.32;;;25.20;98.00;;;;;;5085503;28;20066;-56
2021/08/16 03:32:11;;;;;;;17.45;6.35;;;25.30;98.00;;;;;;5084646;28;20217;-55
2021/08/16 03:34:38;;;;;;;12.60;5.70;;;25.30;98.00;;;;;;5084645;28;20028;-53
2021/08/16 03:37:05;;;;;;;8.48;5.40;;;25.30;98.00;;;;;;5084898;28;20016;-52
2021/08/16 03:39:31;;;;;;;13.23;5.63;;;25.30;98.00;;;;;;5084922;28;20021;-52
2021/08/16 03:41:58;;;;;;;7.50;5.00;;;25.30;98.00;;;;;;5085228;28;20028;-52
2021/08/16 03:44:25;;;;;;;6.47;4.65;;;25.30;98.00;;;;;;5085126;28;20025;-46
2021/08/16 03:46:51;;;;;;;6.78;5.50;;;25.30;98.00;;;;;;5084770;28;20020;-55
2021/08/16 03:49:18;;;;;;;7.15;4.90;;;25.30;98.00;;;;;;5084753;28;20024;-53
2021/08/16 03:51:44;;;;;;;7.25;5.05;;;25.30;98.00;;;;;;5072870;28;20016;-53
2021/08/16 03:54:11;;;;;;;7.35;4.57;;;25.20;98.20;;;;;;5064963;28;20209;-56
2021/08/16 03:56:38;;;;;;;6.28;4.50;;;25.20;98.20;;;;;;5065425;28;20029;-52
2021/08/16 03:59:04;;;;;;;6.47;4.15;;;25.20;98.20;;;;;;5065338;28;20196;-51
2021/08/16 04:01:31;;;;;;;9.43;4.18;;;25.20;98.20;;;;;;5064868;28;20013;-53
2021/08/16 04:04:01;;;;;;;8.10;4.53;;;25.20;98.10;;;;;;5064856;28;20031;-55
2021/08/16 04:06:29;;;;;;;7.38;4.55;;;25.30;98.00;;;;;;5064838;28;20025;-48
2021/08/16 04:08:56;;;;;;;6.35;4.40;;;25.30;98.00;;;;;;5064661;28;20020;-54
2021/08/16 04:11:22;;;;;;;7.75;4.60;;;25.30;98.00;;;;;;5070477;28;20043;-51
2021/08/16 04:13:49;;;;;;;5.63;4.30;;;25.30;97.90;;;;;;5083970;28;20098;-50
2021/08/16 04:16:15;;;;;;;9.07;4.68;;;25.30;98.10;;;;;;5084312;28;20085;-52
2021/08/16 04:18:42;;;;;;;7.07;4.30;;;25.30;98.10;;;;;;5084462;28;20027;-51
2021/08/16 04:21:09;;;;;;;8.43;4.78;;;25.20;98.30;;;;;;5084679;28;20016;-52
2021/08/16 04:23:35;;;;;;;9.30;5.43;;;25.20;98.40;;;;;;5084366;28;20327;-53
2021/08/16 04:26:02;;;;;;;7.32;5.10;;;25.20;98.50;;;;;;5084442;28;20028;-52
2021/08/16 04:28:28;;;;;;;6.55;5.55;;;25.20;98.40;;;;;;5084648;28;20339;-48
2021/08/16 04:30:55;;;;;;;6.88;5.57;;;25.10;98.60;;;;;;5085077;28;20028;-50
2021/08/16 04:33:24;;;;;;;7.82;5.75;;;25.10;98.70;;;;;;5084293;28;20063;-50
2021/08/16 04:35:55;;;;;;;7.15;5.15;;;25.00;98.70;;;;;;5084859;28;20096;-53
2021/08/16 04:38:23;;;;;;;7.82;5.50;;;25.10;98.70;;;;;;5084615;28;20021;-50
2021/08/16 04:40:53;;;;;;;12.10;6.32;;;25.10;98.60;;;;;;5084787;28;20196;-49
2021/08/16 04:43:21;;;;;;;9.68;6.18;;;25.10;98.50;;;;;;5084393;28;20066;-48
2021/08/16 04:45:48;;;;;;;6.70;6.05;;;25.20;98.50;;;;;;5084787;28;20084;-56
2021/08/16 04:48:15;;;;;;;8.63;6.57;;;25.20;98.40;;;;;;5084521;28;20082;-49
2021/08/16 04:50:41;;;;;;;8.43;6.00;;;25.20;98.40;;;;;;5084845;28;20027;-55
2021/08/16 04:53:08;;;;;;;9.20;5.78;;;25.20;98.20;;;;;;5084404;28;20055;-49
2021/08/16 04:55:35;;;;;;;6.70;5.80;;;25.30;98.20;;;;;;5084542;28;20035;-53
2021/08/16 04:58:02;;;;;;;7.22;6.03;;;25.20;98.10;;;;;;5084161;28;20095;-47
2021/08/16 05:00:28;;;;;;;9.57;5.50;;;25.20;98.20;;;;;;5084408;28;20212;-52
2021/08/16 05:02:56;;;;;;;7.75;5.97;;;25.20;98.40;;;;;;5083766;28;20023;-52
2021/08/16 05:05:29;;;;;;;8.52;5.20;;;25.30;98.10;;;;;;5083910;28;20312;-53
2021/08/16 05:07:57;;;;;;;8.90;5.28;;;25.30;98.10;;;;;;5083468;28;20017;-53
2021/08/16 05:10:25;;;;;;;6.30;5.05;;;25.30;98.10;;;;;;5083981;28;20033;-54
2021/08/16 05:12:53;;;;;;;10.43;5.30;;;25.30;98.00;;;;;;5083502;28;20020;-58
2021/08/16 05:15:21;;;;;;;8.38;4.53;;;25.20;98.00;;;;;;5083370;28;20213;-55
2021/08/16 05:17:48;;;;;;;5.57;4.25;;;25.20;98.00;;;;;;5083624;28;20044;-53
2021/08/16 05:20:16;;;;;;;5.10;4.10;;;25.20;98.00;;;;;;5083906;28;20092;-57
2021/08/16 05:22:45;;;;;;;5.50;4.05;;;25.20;97.90;;;;;;5083460;28;20012;-51
2021/08/16 05:25:13;;;;;;;5.43;4.05;;;25.20;97.90;;;;;;5084070;28;20028;-49
2021/08/16 05:27:40;;;;;;;7.03;3.83;;;25.20;97.90;;;;;;5087246;28;20079;-57
2021/08/16 05:30:08;;;;;;;6.32;3.65;;;25.20;97.90;;;;;;5087822;28;20047;-52
2021/08/16 05:32:38;;;;;;;7.20;3.50;;;25.20;97.90;;;;;;5087442;28;20024;-53
2021/08/16 05:35:06;;;;;;;7.75;3.70;;;25.20;97.90;;;;;;5087748;28;20036;-53
2021/08/16 05:37:33;;;;;;;5.57;3.22;;;25.20;97.90;;;;;;5087446;28;20111;-63
2021/08/16 05:39:59;;;;;;;4.07;3.10;;;25.20;97.90;;;;;;5087167;28;20035;-62
2021/08/16 05:42:26;;;;;;;8.32;3.13;;;25.20;97.90;;;;;;5087291;28;20079;-56
2021/08/16 05:44:52;;;;;;;5.90;3.88;;;25.20;97.90;;;;;;5087212;28;20055;-60
2021/08/16 05:47:19;;;;;;;8.20;3.47;;;25.20;97.90;;;;;;5087141;28;20016;-57
2021/08/16 05:49:45;;;;;;;7.00;3.55;;;25.20;97.90;;;;;;5086967;28;20033;-51
2021/08/16 05:52:12;;;;;;;6.70;3.60;;;25.20;97.90;;;;;;5087086;28;20028;-51
2021/08/16 05:54:39;;;;;;;6.45;3.20;;;25.20;98.00;;;;;;5087122;28;20312;-51
2021/08/16 05:57:05;;;;;;;4.20;2.95;;;25.20;98.00;;;;;;5087023;28;20309;-51
2021/08/16 05:59:32;;;;;;;5.15;2.63;;;25.20;98.00;;;;;;5087075;28;20025;-52
2021/08/16 06:01:58;;;;;;;7.80;3.58;;;25.10;98.00;;;;;;5087089;28;20372;-49
2021/08/16 06:04:25;;;;;;;5.38;2.90;;;25.10;98.10;;;;;;5085639;28;20201;-51
2021/08/16 06:06:51;;;;;;;4.22;3.20;;;25.10;98.20;;;;;;5086474;28;20204;-53
2021/08/16 06:09:18;;;;;;;6.35;3.08;;;25.10;98.20;;;;;;5086943;28;20028;-52
2021/08/16 06:11:45;;;;;;;5.65;3.20;;;25.10;98.20;;;;;;5086554;28;20094;-52
2021/08/16 06:14:11;;;;;;;8.15;3.05;;;25.10;98.20;;;;;;5086444;28;20346;-48
2021/08/16 06:16:38;;;;;;;6.10;3.22;;;25.10;98.20;;;;;;5086791;28;20419;-46
2021/08/16 06:19:04;;;;;;;7.72;2.90;;;25.00;98.30;;;;;;5086793;28;20063;-51
2021/08/16 06:21:33;;;;;;;8.18;3.22;;;25.00;98.40;;;;;;5086716;28;20016;-53
2021/08/16 06:23:59;;;;;;;5.20;2.72;;;25.10;98.30;;;;;;5086570;28;20028;-58
2021/08/16 06:26:26;;;;;;;3.65;3.30;;;25.10;98.20;;;;;;5086824;28;20032;-61
2021/08/16 06:28:53;;;;;;;10.77;3.20;;;25.10;98.20;;;;;;5086607;28;20036;-55
2021/08/16 06:31:19;;;;;;;7.45;3.60;;;25.00;98.30;;;;;;5086445;28;20020;-58
2021/08/16 06:33:46;;;;;;;5.03;3.83;;;25.00;98.40;;;;;;5086508;28;20024;-54
2021/08/16 06:36:13;;;;;;;6.57;3.70;;;25.00;98.30;;;;;;5086355;28;20020;-55
2021/08/16 06:38:40;;;;;;;4.25;3.42;;;25.00;98.30;;;;;;5085807;28;20012;-54
2021/08/16 06:41:07;;;;;;;7.72;3.58;;;25.00;98.20;;;;;;5086374;28;20020;-54
2021/08/16 06:43:33;;;;;;;7.07;3.53;;;25.00;98.40;;;;;;5086213;28;20080;-57
2021/08/16 06:46:00;;;;;;;7.25;4.28;;;25.00;98.40;;;;;;5086110;28;20087;-55
2021/08/16 06:48:27;;;;;;;8.40;3.88;;;25.00;98.40;;;;;;5086224;28;20024;-53
2021/08/16 06:50:53;;;;;;;5.13;3.90;;;25.00;98.40;;;;;;5086676;28;20024;-54
2021/08/16 06:53:21;;;;;;;5.22;4.35;;;25.00;98.40;;;;;;5085993;28;20020;-53
2021/08/16 06:55:48;;;;;;;4.97;3.85;;;25.00;98.40;;;;;;5086482;28;20029;-54
2021/08/16 06:58:15;;;;;;;7.30;4.45;;;25.00;98.40;;;;;;5086102;28;20066;-52
2021/08/16 07:00:43;;;;;;;7.07;4.55;;;25.00;98.30;;;;;;5086323;28;20012;-46
2021/08/16 07:03:10;;;;;;;4.78;4.30;;;25.00;98.30;;;;;;5086087;28;20028;-49
2021/08/16 07:05:46;;;;;;;6.57;4.10;;;25.00;98.30;;;;;;5086183;28;20030;-49
2021/08/16 07:08:14;;;;;;;6.25;3.90;;;25.00;98.20;;;;;;5085793;28;20054;-52
2021/08/16 07:10:41;;;;;;;6.93;4.40;;;25.00;98.20;;;;;;5085755;28;20024;-54
2021/08/16 07:13:11;;;;;;;6.90;4.05;;;25.10;98.20;;;;;;5085624;28;20028;-56
2021/08/16 07:15:39;;;;;;;8.25;4.65;;;25.00;98.10;;;;;;5085473;28;20044;-60
2021/08/16 07:18:06;;;;;;;5.47;4.00;;;25.10;98.10;;;;;;5085607;28;20300;-54
2021/08/16 07:20:33;;;;;;;8.25;4.20;;;25.00;98.10;;;;;;5085830;28;20028;-57
2021/08/16 07:22:59;;;;;;;7.65;3.95;;;25.00;98.10;;;;;;5085532;28;20019;-56
2021/08/16 07:25:26;;;;;;;5.35;4.10;;;25.00;98.10;;;;;;5085923;28;20066;-55
2021/08/16 07:27:52;;;;;;;4.93;4.28;;;25.00;98.10;;;;;;5085359;28;20049;-52
2021/08/16 07:30:19;;;;;;;6.20;4.00;;;25.00;98.10;;;;;;5085914;28;20039;-54
2021/08/16 07:32:46;;;;;;;5.03;4.53;;;25.00;98.20;;;;;;5085278;28;20016;-51
2021/08/16 07:35:12;;;;;;;8.43;4.25;;;25.00;98.20;;;;;;5085573;28;20032;-55
2021/08/16 07:37:40;;;;;;;5.07;4.50;;;24.90;98.30;;;;;;5085134;28;20435;-54
2021/08/16 07:40:07;;;;;;;6.35;4.55;;;25.00;98.30;;;;;;5085051;28;20028;-55
2021/08/16 07:42:33;;;;;;;6.85;4.53;;;25.00;98.20;;;;;;5085132;28;20021;-56
2021/08/16 07:45:00;;;;;;;8.82;4.97;;;25.00;98.20;;;;;;5085244;28;20028;-54
2021/08/16 07:47:27;;;;;;;7.47;4.88;;;25.00;98.20;;;;;;5085320;28;20090;-52
2021/08/16 07:49:53;;;;;;;8.00;5.38;;;25.00;98.20;;;;;;5084376;28;20244;-53
2021/08/16 07:52:20;;;;;;;9.70;5.03;;;25.00;98.10;;;;;;5084834;28;20079;-53
2021/08/16 07:54:46;;;;;;;5.43;4.72;;;25.00;98.10;;;;;;5085082;28;20032;-55
2021/08/16 07:57:13;;;;;;;10.32;5.32;;;25.00;98.10;;;;;;5084855;28;20020;-54
2021/08/16 07:59:40;;;;;;;8.57;5.47;;;25.00;98.10;;;;;;5084787;28;20036;-55
2021/08/16 08:02:06;;;;;;;6.70;4.97;;;25.00;98.20;;;;;;5084585;28;20020;-54
2021/08/16 08:04:33;;;;;;;9.40;5.25;;;25.00;98.20;;;;;;5085024;28;20207;-57
2021/08/16 08:07:01;;;;;;;8.20;5.25;;;24.90;98.30;;;;;;5084069;28;20024;-57
2021/08/16 08:09:28;;;;;;;6.75;4.60;;;24.90;98.30;;;;;;5084406;28;20209;-58
2021/08/16 08:11:55;;;;;;;8.05;5.53;;;25.00;98.30;;;;;;5084608;28;20324;-59
2021/08/16 08:14:21;;;;;;;7.70;5.72;;;24.90;98.40;;;;;;5083747;28;20189;-59
2021/08/16 08:16:48;;;;;;;8.35;5.85;;;24.90;98.50;;;;;;5084326;28;20087;-60
2021/08/16 08:19:14;;;;;;;8.43;5.72;;;24.90;98.50;;;;;;5084239;28;20051;-60
2021/08/16 08:21:41;;;;;;;7.20;5.47;;;24.90;98.50;;;;;;5084041;28;20257;-57
2021/08/16 08:24:08;;;;;;;11.18;5.93;;;24.90;98.40;;;;;;5084253;28;20029;-63
2021/08/16 08:26:34;;;;;;;7.25;5.57;;;24.90;98.30;;;;;;5084103;28;20023;-57
2021/08/16 08:29:01;;;;;;;7.28;5.57;;;25.00;98.30;;;;;;5084069;28;20078;-54
2021/08/16 08:31:28;;;;;;;7.90;5.55;;;25.00;98.30;;;;;;5083881;28;20023;-55
2021/08/16 08:33:54;;;;;;;9.85;5.70;;;25.00;98.20;;;;;;5084024;28;20240;-56
2021/08/16 08:36:21;;;;;;;7.03;5.93;;;25.00;98.20;;;;;;5083830;28;20042;-57
2021/08/16 08:38:47;;;;;;;7.10;5.65;;;24.90;98.20;;;;;;5083884;28;20088;-57
2021/08/16 08:41:17;;;;;;;9.90;6.18;;;25.00;98.20;;;;;;5083844;28;20016;-57
2021/08/16 08:43:45;;;;;;;7.65;5.85;;;24.90;98.20;;;;;;5083721;28;20022;-56
2021/08/16 08:46:13;;;;;;;8.30;5.40;;;24.90;98.30;;;;;;5083690;28;20026;-56
2021/08/16 08:48:39;;;;;;;8.07;5.22;;;24.90;98.30;;;;;;5083745;28;20021;-56
2021/08/16 08:51:07;;;;;;;7.32;5.38;;;24.80;98.20;;;;;;5083643;28;20372;-57
2021/08/16 08:53:33;;;;;;;7.00;5.07;;;24.90;98.20;;;;;;5083626;28;20070;-58
2021/08/16 08:56:00;;;;;;;5.25;4.75;;;24.90;98.20;;;;;;5083661;28;20027;-58
2021/08/16 08:58:27;;;;;;;7.28;5.35;;;24.90;98.20;;;;;;5083418;28;20016;-57
2021/08/16 09:00:53;;;;;;;10.65;5.60;;;24.80;98.20;;;;;;5084017;28;20032;-56
2021/08/16 09:03:20;;;;;;;7.32;4.95;;;24.90;98.20;;;;;;5083542;28;20020;-61
2021/08/16 09:05:50;;;;;;;5.38;4.88;;;24.80;98.20;;;;;;5083890;28;20033;-53
2021/08/16 09:08:23;;;;;;;6.28;5.13;;;24.80;98.10;;;;;;5083545;28;20079;-55
2021/08/16 09:10:51;;;;;;;8.63;4.75;;;24.90;98.20;;;;;;5084067;28;20032;-52
2021/08/16 09:13:26;;;;;;;9.48;4.65;;;24.80;98.10;;;;;;5083441;28;20025;-51
2021/08/16 09:15:57;;;;;;;5.00;4.50;;;24.80;98.20;;;;;;5083474;28;20044;-52
2021/08/16 09:18:30;;;;;;;7.50;4.27;;;24.80;98.20;;;;;;5083544;28;20297;-54
2021/08/16 09:20:58;;;;;;;6.50;4.57;;;24.80;98.30;;;;;;5083532;28;20052;-50
2021/08/16 09:23:25;;;;;;;6.40;4.75;;;24.80;98.30;;;;;;5083616;28;20021;-50
2021/08/16 09:25:57;;;;;;;4.53;4.05;;;24.80;98.20;;;;;;5083930;28;20252;-52
2021/08/16 09:28:31;;;;;;;8.50;4.43;;;24.80;98.20;;;;;;5083520;28;20043;-54
2021/08/16 09:31:12;;;;;;;7.53;4.88;;;24.80;98.20;;;;;;5083449;28;20040;-57
2021/08/16 09:33:41;;;;;;;5.45;4.15;;;24.80;98.20;;;;;;5083401;28;20312;-57
2021/08/16 09:36:08;;;;;;;7.97;5.13;;;24.80;98.20;;;;;;5083466;28;20331;-48
2021/08/16 09:38:39;;;;;;;7.43;4.70;;;24.80;98.20;;;;;;5083195;28;20127;-53
2021/08/16 09:41:27;;;;;;;7.80;4.88;;;24.80;98.20;;;;;;5083649;28;20040;-51
2021/08/16 09:44:10;;;;;;;7.07;4.90;;;24.80;98.30;;;;;;5083283;28;20017;-53
2021/08/16 09:46:37;;;;;;;7.00;4.93;;;24.80;98.30;;;;;;5083527;28;20025;-54
2021/08/16 09:49:05;;;;;;;9.80;5.05;;;24.80;98.20;;;;;;5083310;28;20196;-55
2021/08/16 09:51:34;;;;;;;10.52;5.00;;;24.80;98.20;;;;;;5083411;28;20025;-55
2021/08/16 09:54:02;;;;;;;6.20;4.72;;;24.80;98.20;;;;;;5083229;28;20017;-49
2021/08/16 09:56:29;;;;;;;7.18;4.68;;;24.80;98.10;;;;;;5083108;28;20339;-59
2021/08/16 09:58:56;;;;;;;8.20;4.72;;;24.80;98.10;;;;;;5083055;28;20028;-54
2021/08/16 10:01:23;;;;;;;8.48;4.22;;;24.80;98.10;;;;;;5083010;28;20023;-49
2021/08/16 10:03:49;;;;;;;6.82;4.40;;;24.80;98.00;;;;;;5083098;28;20024;-49
2021/08/16 10:06:18;;;;;;;7.55;4.60;;;24.80;98.00;;;;;;5082889;28;20048;-54
2021/08/16 10:08:54;;;;;;;6.45;4.30;;;24.80;98.00;;;;;;5083103;28;20027;-52
2021/08/16 10:11:21;;;;;;;5.80;4.15;;;24.80;98.00;;;;;;5082868;28;20028;-54
2021/08/16 10:13:56;;;;;;;10.05;4.00;;;24.80;98.00;;;;;;5086822;28;20295;-53
2021/08/16 10:16:34;;;;;;;5.82;4.50;;;24.80;98.00;;;;;;5086215;28;20043;-57
2021/08/16 10:19:03;;;;;;;5.80;4.18;;;24.80;98.00;;;;;;5086544;28;20028;-53
2021/08/16 10:21:31;;;;;;;9.35;4.28;;;24.80;98.00;;;;;;5086549;28;20268;-52
2021/08/16 10:23:57;;;;;;;6.40;3.95;;;24.80;98.10;;;;;;5086202;28;20044;-50
2021/08/16 10:26:32;;;;;;;6.78;3.85;;;24.80;98.20;;;;;;5086530;28;20038;-58
2021/08/16 10:29:01;;;;;;;6.75;4.30;;;24.80;98.10;;;;;;5086293;28;20032;-58
2021/08/16 10:31:32;;;;;;;7.15;4.18;;;24.80;98.10;;;;;;5086150;28;20012;-52
2021/08/16 10:33:59;;;;;;;6.82;4.50;;;24.80;98.20;;;;;;5086345;28;20238;-56
2021/08/16 10:36:26;;;;;;;5.88;4.15;;;24.80;98.10;;;;;;5085899;28;20083;-52
2021/08/16 10:38:56;;;;;;;8.90;4.25;;;24.80;98.10;;;;;;5086043;28;20029;-55
2021/08/16 10:41:42;;;;;;;6.53;4.32;;;24.80;98.20;;;;;;5086039;28;20071;-54
2021/08/16 10:44:14;;;;;;;7.15;4.68;;;24.80;98.10;;;;;;5085849;28;20032;-48
2021/08/16 10:46:41;;;;;;;6.57;4.50;;;24.80;98.10;;;;;;5086229;28;20023;-52
2021/08/16 10:49:17;;;;;;;5.85;4.50;;;24.80;98.20;;;;;;5085853;28;20031;-55
2021/08/16 10:51:48;;;;;;;6.75;4.72;;;24.80;98.20;;;;;;5085713;28;20247;-59
2021/08/16 10:54:29;;;;;;;6.63;4.95;;;24.80;98.20;;;;;;5085826;28;20024;-47
2021/08/16 10:56:57;;;;;;;5.68;4.70;;;24.90;98.20;;;;;;5085724;28;20209;-49
2021/08/16 10:59:26;;;;;;;6.65;4.93;;;24.90;98.30;;;;;;5085730;28;20020;-47
2021/08/16 11:01:54;;;;;;;9.50;5.28;;;24.90;98.30;;;;;;5085673;28;20028;-50
2021/08/16 11:04:35;;;;;;;9.35;5.47;;;24.90;98.40;;;;;;5085639;28;20051;-54
2021/08/16 11:07:07;;;;;;;7.07;5.80;;;24.80;98.40;;;;;;5085480;28;20020;-53
2021/08/16 11:09:36;;;;;;;10.00;5.70;;;24.80;98.60;;;;;;5085735;28;20021;-64
2021/08/16 11:12:11;;;;;;;6.35;5.50;;;24.80;98.80;;;;;;5085347;28;20024;-56
2021/08/16 11:14:42;;;;;;;12.65;6.38;;;24.80;98.60;;;;;;5085289;28;20048;-56
2021/08/16 11:17:09;;;;;;;10.50;6.32;;;24.80;98.70;;;;;;5085346;28;20069;-55
2021/08/16 11:19:43;;;;;;;9.40;6.38;;;24.80;98.60;;;;;;5085383;28;20025;-50
2021/08/16 11:22:10;;;;;;;13.02;7.18;;;24.80;98.60;;;;;;5085285;28;20016;-54
2021/08/16 11:24:38;;;;;;;11.75;5.80;;;24.80;98.60;;;;;;5085524;28;20051;-54
2021/08/16 11:27:07;;;;;;;10.63;5.53;;;24.80;98.60;;;;;;5085126;28;20374;-52
2021/08/16 11:29:34;;;;;;;8.85;6.00;;;24.80;98.60;;;;;;5085137;28;20127;-62
2021/08/16 11:32:04;;;;;;;10.68;6.55;;;24.80;98.60;;;;;;5085014;28;20028;-52
2021/08/16 11:34:44;;;;;;;16.58;7.18;;;24.80;98.70;;;;;;5081690;28;20324;-51
2021/08/16 11:37:12;;;;;;;19.95;9.77;;;24.80;98.70;;;;;;5073151;28;20190;-54
2021/08/16 11:39:38;;;;;;;18.65;8.95;;;24.80;98.80;;;;;;5070046;28;20170;-50
2021/08/16 11:42:05;;;;;;;23.13;9.90;;;24.80;98.90;;;;;;5065270;28;20013;-51
2021/08/16 11:44:34;;;;;;;17.83;9.38;;;24.70;99.10;;;;;;5065471;28;20055;-49
2021/08/16 11:47:02;;;;;;;16.70;9.23;;;24.70;99.20;;;;;;5064925;28;20021;-56
2021/08/16 11:49:34;;;;;;;11.93;7.78;;;24.70;99.20;;;;;;5065173;28;20091;-53
2021/08/16 11:52:02;;;;;;;11.57;7.85;;;24.70;99.20;;;;;;5065182;28;20032;-51
2021/08/16 11:54:32;;;;;;;12.75;7.80;;;24.70;99.30;;;;;;5064941;28;20115;-53
2021/08/16 11:57:01;;;;;;;12.95;7.60;;;24.70;99.20;;;;;;5065072;28;20122;-51
2021/08/16 11:59:29;;;;;;;11.35;7.45;;;24.80;99.20;;;;;;5064820;28;20059;-59
2021/08/16 12:01:59;;;;;;;9.70;7.15;;;24.80;99.30;;;;;;5064838;28;20213;-53
2021/08/16 12:04:26;;;;;;;10.68;8.02;;;24.90;99.20;;;;;;5064765;28;20193;-55
2021/08/16 12:06:54;;;;;;;12.07;10.05;;;24.90;99.20;;;;;;5064507;28;20020;-55
2021/08/16 12:09:21;;;;;;;11.18;9.30;;;24.90;99.60;;;;;;5064588;28;20033;-50
2021/08/16 12:12:02;;;;;;;11.68;9.50;;;24.90;99.30;;;;;;5064323;28;20083;-54
2021/08/16 12:14:34;;;;;;;11.20;9.70;;;25.00;99.20;;;;;;5061689;28;20057;-56
2021/08/16 12:17:01;;;;;;;11.50;10.25;;;25.00;99.10;;;;;;5064347;28;20066;-52
2021/08/16 12:19:27;;;;;;;10.38;9.38;;;25.00;99.40;;;;;;5070108;28;20028;-58
2021/08/16 12:22:09;;;;;;;10.90;9.88;;;25.10;99.50;;;;;;5084377;28;20021;-53
2021/08/16 12:24:38;;;;;;;12.60;10.80;;;25.10;99.40;;;;;;5084466;28;20028;-52
2021/08/16 12:27:10;;;;;;;12.32;9.48;;;25.10;99.30;;;;;;5073109;28;20036;-53
2021/08/16 12:29:46;;;;;;;10.13;8.95;;;25.10;99.70;;;;;;5064237;28;20044;-52
2021/08/16 12:32:28;;;;;;;9.52;8.63;;;25.20;99.70;;;;;;5064215;28;20017;-48
2021/08/16 12:34:58;;;;;;;9.52;8.63;;;25.20;99.80;;;;;;5063845;28;20568;-47
2021/08/16 12:37:32;;;;;;;11.93;9.00;;;25.20;99.80;;;;;;5064172;28;20021;-48
2021/08/16 12:40:10;;;;;;;9.35;8.45;;;25.20;99.80;;;;;;5064249;28;20044;-52
2021/08/16 12:42:37;;;;;;;10.40;8.25;;;25.20;99.90;;;;;;5064084;28;20017;-52
2021/08/16 12:45:08;;;;;;;9.65;8.50;;;25.20;99.90;;;;;;5064165;28;20228;-49
2021/08/16 12:47:36;;;;;;;10.43;9.02;;;25.20;99.90;;;;;;5062943;28;20088;-48